sensor_id;sensor_type;location;lat;lon;timestamp;temperature;humidity
81047;SHT31;70539;51.970;5.670;2023-09-19T00:00:27;17.3;75.6
81047;SHT31;70539;51.970;5.670;2023-09-19T00:02:57;17.3;75.7
81047;SHT31;70539;51.970;5.670;2023-09-19T00:05:28;17.3;76.3
81047;SHT31;70539;51.970;5.670;2023-09-19T00:07:57;17.2;76.3
81047;SHT31;70539;51.970;5.670;2023-09-19T00:10:27;17.2;76.1
81047;SHT31;70539;51.970;5.670;2023-09-19T00:12:58;17.2;76.4
81047;SHT31;70539;51.970;5.670;2023-09-19T00:15:27;17.2;75.8
81047;SHT31;70539;51.970;5.670;2023-09-19T00:17:57;17.2;76.7
81047;SHT31;70539;51.970;5.670;2023-09-19T00:20:26;17.2;76.7
81047;SHT31;70539;51.970;5.670;2023-09-19T00:22:56;17.2;76.8
81047;SHT31;70539;51.970;5.670;2023-09-19T00:25:25;17.3;76.8
81047;SHT31;70539;51.970;5.670;2023-09-19T00:27:55;17.3;76.8
81047;SHT31;70539;51.970;5.670;2023-09-19T00:30:24;17.3;77.0
81047;SHT31;70539;51.970;5.670;2023-09-19T00:32:53;17.3;76.4
81047;SHT31;70539;51.970;5.670;2023-09-19T00:35:22;17.3;76.5
81047;SHT31;70539;51.970;5.670;2023-09-19T00:37:52;17.3;76.5
81047;SHT31;70539;51.970;5.670;2023-09-19T00:40:24;17.3;76.3
81047;SHT31;70539;51.970;5.670;2023-09-19T00:42:57;17.3;76.7
81047;SHT31;70539;51.970;5.670;2023-09-19T00:45:27;17.3;77.0
81047;SHT31;70539;51.970;5.670;2023-09-19T00:47:56;17.3;77.2
81047;SHT31;70539;51.970;5.670;2023-09-19T00:50:26;17.3;77.2
81047;SHT31;70539;51.970;5.670;2023-09-19T00:52:56;17.3;77.4
81047;SHT31;70539;51.970;5.670;2023-09-19T00:55:25;17.4;77.1
81047;SHT31;70539;51.970;5.670;2023-09-19T00:57:57;17.4;77.2
81047;SHT31;70539;51.970;5.670;2023-09-19T01:00:27;17.4;77.0
81047;SHT31;70539;51.970;5.670;2023-09-19T01:03:00;17.4;77.2
81047;SHT31;70539;51.970;5.670;2023-09-19T01:05:30;17.4;77.2
81047;SHT31;70539;51.970;5.670;2023-09-19T01:07:58;17.4;76.9
81047;SHT31;70539;51.970;5.670;2023-09-19T01:10:28;17.4;76.9
81047;SHT31;70539;51.970;5.670;2023-09-19T01:13:05;17.4;76.7
81047;SHT31;70539;51.970;5.670;2023-09-19T01:15:48;17.4;76.9
81047;SHT31;70539;51.970;5.670;2023-09-19T01:18:27;17.4;76.9
81047;SHT31;70539;51.970;5.670;2023-09-19T01:21:08;17.4;76.9
81047;SHT31;70539;51.970;5.670;2023-09-19T01:23:59;17.4;76.7
81047;SHT31;70539;51.970;5.670;2023-09-19T01:27:00;17.4;77.0
81047;SHT31;70539;51.970;5.670;2023-09-19T01:29:38;17.4;76.9
81047;SHT31;70539;51.970;5.670;2023-09-19T01:32:08;17.4;76.2
81047;SHT31;70539;51.970;5.670;2023-09-19T01:34:47;17.4;76.3
81047;SHT31;70539;51.970;5.670;2023-09-19T01:37:17;17.4;75.9
81047;SHT31;70539;51.970;5.670;2023-09-19T01:39:50;17.5;76.1
81047;SHT31;70539;51.970;5.670;2023-09-19T01:42:27;17.5;75.6
81047;SHT31;70539;51.970;5.670;2023-09-19T01:45:05;17.5;74.2
81047;SHT31;70539;51.970;5.670;2023-09-19T01:47:42;17.5;75.2
81047;SHT31;70539;51.970;5.670;2023-09-19T01:50:21;17.5;75.2
81047;SHT31;70539;51.970;5.670;2023-09-19T01:52:57;17.5;74.0
81047;SHT31;70539;51.970;5.670;2023-09-19T01:55:45;17.5;74.3
81047;SHT31;70539;51.970;5.670;2023-09-19T01:58:16;17.5;72.7
81047;SHT31;70539;51.970;5.670;2023-09-19T02:00:48;17.5;73.5
81047;SHT31;70539;51.970;5.670;2023-09-19T02:03:20;17.4;73.6
81047;SHT31;70539;51.970;5.670;2023-09-19T02:05:52;17.4;73.1
81047;SHT31;70539;51.970;5.670;2023-09-19T02:08:22;17.3;73.3
81047;SHT31;70539;51.970;5.670;2023-09-19T02:10:52;17.3;73.5
81047;SHT31;70539;51.970;5.670;2023-09-19T02:13:22;17.2;73.3
81047;SHT31;70539;51.970;5.670;2023-09-19T02:15:52;17.2;73.5
81047;SHT31;70539;51.970;5.670;2023-09-19T02:18:20;17.2;73.1
81047;SHT31;70539;51.970;5.670;2023-09-19T02:20:51;17.1;73.5
81047;SHT31;70539;51.970;5.670;2023-09-19T02:23:22;17.1;72.7
81047;SHT31;70539;51.970;5.670;2023-09-19T02:25:54;17.0;73.0
81047;SHT31;70539;51.970;5.670;2023-09-19T02:28:24;17.0;73.4
81047;SHT31;70539;51.970;5.670;2023-09-19T02:30:56;17.0;73.4
81047;SHT31;70539;51.970;5.670;2023-09-19T02:33:25;16.9;73.4
81047;SHT31;70539;51.970;5.670;2023-09-19T02:35:57;16.9;73.1
81047;SHT31;70539;51.970;5.670;2023-09-19T02:38:27;16.9;73.3
81047;SHT31;70539;51.970;5.670;2023-09-19T02:40:56;16.8;73.4
81047;SHT31;70539;51.970;5.670;2023-09-19T02:43:27;16.8;72.5
81047;SHT31;70539;51.970;5.670;2023-09-19T02:45:57;16.8;72.7
81047;SHT31;70539;51.970;5.670;2023-09-19T02:48:26;16.7;73.1
81047;SHT31;70539;51.970;5.670;2023-09-19T02:50:56;16.7;73.2
81047;SHT31;70539;51.970;5.670;2023-09-19T02:53:24;16.6;73.0
81047;SHT31;70539;51.970;5.670;2023-09-19T02:55:54;16.6;72.8
81047;SHT31;70539;51.970;5.670;2023-09-19T02:58:23;16.6;73.2
81047;SHT31;70539;51.970;5.670;2023-09-19T03:00:51;16.6;71.9
81047;SHT31;70539;51.970;5.670;2023-09-19T03:03:21;16.5;72.0
81047;SHT31;70539;51.970;5.670;2023-09-19T03:05:50;16.5;72.2
81047;SHT31;70539;51.970;5.670;2023-09-19T03:08:19;16.5;72.2
81047;SHT31;70539;51.970;5.670;2023-09-19T03:10:48;16.4;72.1
81047;SHT31;70539;51.970;5.670;2023-09-19T03:13:17;16.4;72.3
81047;SHT31;70539;51.970;5.670;2023-09-19T03:15:46;16.4;72.2
81047;SHT31;70539;51.970;5.670;2023-09-19T03:18:16;16.3;72.2
81047;SHT31;70539;51.970;5.670;2023-09-19T03:20:54;16.3;71.7
81047;SHT31;70539;51.970;5.670;2023-09-19T03:23:23;16.3;71.2
81047;SHT31;70539;51.970;5.670;2023-09-19T03:25:52;16.2;71.3
81047;SHT31;70539;51.970;5.670;2023-09-19T03:28:21;16.2;71.6
81047;SHT31;70539;51.970;5.670;2023-09-19T03:30:59;16.2;71.8
81047;SHT31;70539;51.970;5.670;2023-09-19T03:33:29;16.1;69.9
81047;SHT31;70539;51.970;5.670;2023-09-19T03:36:00;16.1;70.6
81047;SHT31;70539;51.970;5.670;2023-09-19T03:38:31;16.1;72.2
81047;SHT31;70539;51.970;5.670;2023-09-19T03:41:01;16.0;71.3
81047;SHT31;70539;51.970;5.670;2023-09-19T03:43:31;16.0;71.5
81047;SHT31;70539;51.970;5.670;2023-09-19T03:46:03;16.0;71.8
81047;SHT31;70539;51.970;5.670;2023-09-19T03:48:34;15.9;70.5
81047;SHT31;70539;51.970;5.670;2023-09-19T03:51:02;15.9;71.9
81047;SHT31;70539;51.970;5.670;2023-09-19T03:53:31;15.9;71.1
81047;SHT31;70539;51.970;5.670;2023-09-19T03:55:59;15.8;70.4
81047;SHT31;70539;51.970;5.670;2023-09-19T03:58:29;15.8;71.1
81047;SHT31;70539;51.970;5.670;2023-09-19T04:01:00;15.8;69.6
81047;SHT31;70539;51.970;5.670;2023-09-19T04:03:30;15.7;71.3
81047;SHT31;70539;51.970;5.670;2023-09-19T04:06:07;15.7;70.4
81047;SHT31;70539;51.970;5.670;2023-09-19T04:08:36;15.7;69.8
81047;SHT31;70539;51.970;5.670;2023-09-19T04:11:05;15.7;70.8
81047;SHT31;70539;51.970;5.670;2023-09-19T04:13:34;15.6;71.6
81047;SHT31;70539;51.970;5.670;2023-09-19T04:16:03;15.6;71.9
81047;SHT31;70539;51.970;5.670;2023-09-19T04:18:33;15.6;71.5
81047;SHT31;70539;51.970;5.670;2023-09-19T04:21:04;15.6;72.1
81047;SHT31;70539;51.970;5.670;2023-09-19T04:23:35;15.5;72.0
81047;SHT31;70539;51.970;5.670;2023-09-19T04:26:03;15.5;72.3
81047;SHT31;70539;51.970;5.670;2023-09-19T04:28:32;15.5;71.8
81047;SHT31;70539;51.970;5.670;2023-09-19T04:31:05;15.5;71.8
81047;SHT31;70539;51.970;5.670;2023-09-19T04:33:34;15.5;71.7
81047;SHT31;70539;51.970;5.670;2023-09-19T04:36:04;15.5;71.8
81047;SHT31;70539;51.970;5.670;2023-09-19T04:38:34;15.5;72.2
81047;SHT31;70539;51.970;5.670;2023-09-19T04:41:05;15.5;72.1
81047;SHT31;70539;51.970;5.670;2023-09-19T04:43:33;15.4;71.7
81047;SHT31;70539;51.970;5.670;2023-09-19T04:46:03;15.4;71.6
81047;SHT31;70539;51.970;5.670;2023-09-19T04:48:33;15.4;71.8
81047;SHT31;70539;51.970;5.670;2023-09-19T04:51:03;15.4;72.5
81047;SHT31;70539;51.970;5.670;2023-09-19T04:53:31;15.4;71.2
81047;SHT31;70539;51.970;5.670;2023-09-19T04:56:00;15.4;72.2
81047;SHT31;70539;51.970;5.670;2023-09-19T04:58:34;15.4;71.8
81047;SHT31;70539;51.970;5.670;2023-09-19T05:01:02;15.4;72.5
81047;SHT31;70539;51.970;5.670;2023-09-19T05:03:31;15.4;72.9
81047;SHT31;70539;51.970;5.670;2023-09-19T05:05:59;15.4;72.1
81047;SHT31;70539;51.970;5.670;2023-09-19T05:08:29;15.4;73.0
81047;SHT31;70539;51.970;5.670;2023-09-19T05:10:57;15.4;72.1
81047;SHT31;70539;51.970;5.670;2023-09-19T05:13:25;15.4;72.6
81047;SHT31;70539;51.970;5.670;2023-09-19T05:15:54;15.4;72.7
81047;SHT31;70539;51.970;5.670;2023-09-19T05:18:22;15.4;72.5
81047;SHT31;70539;51.970;5.670;2023-09-19T05:20:51;15.4;73.0
81047;SHT31;70539;51.970;5.670;2023-09-19T05:23:21;15.4;73.0
81047;SHT31;70539;51.970;5.670;2023-09-19T05:25:49;15.4;72.8
81047;SHT31;70539;51.970;5.670;2023-09-19T05:28:19;15.4;72.1
81047;SHT31;70539;51.970;5.670;2023-09-19T05:30:47;15.4;73.3
81047;SHT31;70539;51.970;5.670;2023-09-19T05:33:16;15.4;73.4
81047;SHT31;70539;51.970;5.670;2023-09-19T05:35:48;15.4;73.8
81047;SHT31;70539;51.970;5.670;2023-09-19T05:38:18;15.4;73.9
81047;SHT31;70539;51.970;5.670;2023-09-19T05:40:47;15.4;74.1
81047;SHT31;70539;51.970;5.670;2023-09-19T05:43:16;15.4;74.1
81047;SHT31;70539;51.970;5.670;2023-09-19T05:45:45;15.4;73.4
81047;SHT31;70539;51.970;5.670;2023-09-19T05:48:14;15.4;73.5
81047;SHT31;70539;51.970;5.670;2023-09-19T05:50:43;15.4;73.4
81047;SHT31;70539;51.970;5.670;2023-09-19T05:53:15;15.4;73.3
81047;SHT31;70539;51.970;5.670;2023-09-19T05:55:44;15.4;74.4
81047;SHT31;70539;51.970;5.670;2023-09-19T05:58:13;15.4;73.9
81047;SHT31;70539;51.970;5.670;2023-09-19T06:00:44;15.4;74.2
81047;SHT31;70539;51.970;5.670;2023-09-19T06:03:14;15.4;73.8
81047;SHT31;70539;51.970;5.670;2023-09-19T06:05:45;15.4;74.7
81047;SHT31;70539;51.970;5.670;2023-09-19T06:08:15;15.4;75.2
81047;SHT31;70539;51.970;5.670;2023-09-19T06:10:44;15.4;75.5
81047;SHT31;70539;51.970;5.670;2023-09-19T06:13:15;15.4;75.3
81047;SHT31;70539;51.970;5.670;2023-09-19T06:15:45;15.5;74.9
81047;SHT31;70539;51.970;5.670;2023-09-19T06:18:15;15.5;75.8
81047;SHT31;70539;51.970;5.670;2023-09-19T06:20:46;15.5;75.2
81047;SHT31;70539;51.970;5.670;2023-09-19T06:23:17;15.6;75.6
81047;SHT31;70539;51.970;5.670;2023-09-19T06:25:49;15.6;74.9
81047;SHT31;70539;51.970;5.670;2023-09-19T06:28:19;15.6;75.8
81047;SHT31;70539;51.970;5.670;2023-09-19T06:30:50;15.6;75.9
81047;SHT31;70539;51.970;5.670;2023-09-19T06:33:19;15.7;75.1
81047;SHT31;70539;51.970;5.670;2023-09-19T06:35:50;15.7;76.2
81047;SHT31;70539;51.970;5.670;2023-09-19T06:38:23;15.7;76.1
81047;SHT31;70539;51.970;5.670;2023-09-19T06:40:53;15.8;75.8
81047;SHT31;70539;51.970;5.670;2023-09-19T06:43:23;15.8;76.4
81047;SHT31;70539;51.970;5.670;2023-09-19T06:45:53;15.9;76.7
81047;SHT31;70539;51.970;5.670;2023-09-19T06:48:22;15.9;75.6
81047;SHT31;70539;51.970;5.670;2023-09-19T06:50:53;16.0;77.0
81047;SHT31;70539;51.970;5.670;2023-09-19T06:53:22;16.0;76.0
81047;SHT31;70539;51.970;5.670;2023-09-19T06:55:51;16.1;77.5
81047;SHT31;70539;51.970;5.670;2023-09-19T06:58:20;16.2;75.9
81047;SHT31;70539;51.970;5.670;2023-09-19T07:00:49;16.3;75.8
81047;SHT31;70539;51.970;5.670;2023-09-19T07:03:18;16.3;76.1
81047;SHT31;70539;51.970;5.670;2023-09-19T07:05:51;16.4;76.4
81047;SHT31;70539;51.970;5.670;2023-09-19T07:08:24;16.5;75.5
81047;SHT31;70539;51.970;5.670;2023-09-19T07:10:52;16.5;77.1
81047;SHT31;70539;51.970;5.670;2023-09-19T07:13:22;16.6;76.3
81047;SHT31;70539;51.970;5.670;2023-09-19T07:15:51;16.7;75.9
81047;SHT31;70539;51.970;5.670;2023-09-19T07:18:20;16.9;78.5
81047;SHT31;70539;51.970;5.670;2023-09-19T07:20:49;17.0;76.5
81047;SHT31;70539;51.970;5.670;2023-09-19T07:23:19;17.3;80.5
81047;SHT31;70539;51.970;5.670;2023-09-19T07:25:49;17.6;79.3
81047;SHT31;70539;51.970;5.670;2023-09-19T07:28:18;17.9;77.4
81047;SHT31;70539;51.970;5.670;2023-09-19T07:30:47;18.2;74.9
81047;SHT31;70539;51.970;5.670;2023-09-19T07:33:17;18.5;75.2
81047;SHT31;70539;51.970;5.670;2023-09-19T07:35:48;18.8;75.4
81047;SHT31;70539;51.970;5.670;2023-09-19T07:38:16;19.1;74.5
81047;SHT31;70539;51.970;5.670;2023-09-19T07:40:45;19.3;71.3
81047;SHT31;70539;51.970;5.670;2023-09-19T07:43:14;19.6;73.2
81047;SHT31;70539;51.970;5.670;2023-09-19T07:45:44;19.8;70.2
81047;SHT31;70539;51.970;5.670;2023-09-19T07:48:13;20.0;72.1
81047;SHT31;70539;51.970;5.670;2023-09-19T07:50:42;20.2;71.2
81047;SHT31;70539;51.970;5.670;2023-09-19T07:53:12;20.4;73.3
81047;SHT31;70539;51.970;5.670;2023-09-19T07:55:43;20.7;71.4
81047;SHT31;70539;51.970;5.670;2023-09-19T07:58:14;21.0;70.0
81047;SHT31;70539;51.970;5.670;2023-09-19T08:00:43;21.3;68.3
81047;SHT31;70539;51.970;5.670;2023-09-19T08:03:12;21.7;65.4
81047;SHT31;70539;51.970;5.670;2023-09-19T08:05:41;22.0;67.4
81047;SHT31;70539;51.970;5.670;2023-09-19T08:08:11;22.4;65.4
81047;SHT31;70539;51.970;5.670;2023-09-19T08:10:41;22.6;62.9
81047;SHT31;70539;51.970;5.670;2023-09-19T08:13:15;22.8;62.5
81047;SHT31;70539;51.970;5.670;2023-09-19T08:15:45;23.0;63.6
81047;SHT31;70539;51.970;5.670;2023-09-19T08:18:14;23.2;62.9
81047;SHT31;70539;51.970;5.670;2023-09-19T08:20:48;23.4;59.1
81047;SHT31;70539;51.970;5.670;2023-09-19T08:23:17;23.6;59.4
81047;SHT31;70539;51.970;5.670;2023-09-19T08:25:47;23.7;60.8
81047;SHT31;70539;51.970;5.670;2023-09-19T08:28:16;23.8;59.2
81047;SHT31;70539;51.970;5.670;2023-09-19T08:30:51;23.9;60.0
81047;SHT31;70539;51.970;5.670;2023-09-19T08:33:21;24.0;56.5
81047;SHT31;70539;51.970;5.670;2023-09-19T08:35:49;24.0;59.0
81047;SHT31;70539;51.970;5.670;2023-09-19T08:38:18;24.1;60.4
81047;SHT31;70539;51.970;5.670;2023-09-19T08:40:46;24.3;58.3
81047;SHT31;70539;51.970;5.670;2023-09-19T08:43:16;24.5;56.7
81047;SHT31;70539;51.970;5.670;2023-09-19T08:45:45;24.6;57.5
81047;SHT31;70539;51.970;5.670;2023-09-19T08:48:22;24.7;58.2
81047;SHT31;70539;51.970;5.670;2023-09-19T08:50:56;24.8;58.3
81047;SHT31;70539;51.970;5.670;2023-09-19T08:53:33;24.9;56.8
81047;SHT31;70539;51.970;5.670;2023-09-19T08:56:10;25.0;55.8
81047;SHT31;70539;51.970;5.670;2023-09-19T08:58:45;25.0;55.5
81047;SHT31;70539;51.970;5.670;2023-09-19T09:01:20;25.1;54.3
81047;SHT31;70539;51.970;5.670;2023-09-19T09:03:54;25.1;55.8
81047;SHT31;70539;51.970;5.670;2023-09-19T09:06:25;25.2;55.8
81047;SHT31;70539;51.970;5.670;2023-09-19T09:08:54;25.4;55.9
81047;SHT31;70539;51.970;5.670;2023-09-19T09:11:23;25.5;56.0
81047;SHT31;70539;51.970;5.670;2023-09-19T09:13:52;25.7;57.9
81047;SHT31;70539;51.970;5.670;2023-09-19T09:16:20;26.0;54.4
81047;SHT31;70539;51.970;5.670;2023-09-19T09:18:52;26.1;52.4
81047;SHT31;70539;51.970;5.670;2023-09-19T09:46:25;28.0;48.2
81047;SHT31;70539;51.970;5.670;2023-09-19T09:49:10;28.1;48.5
81047;SHT31;70539;51.970;5.670;2023-09-19T09:51:59;28.2;45.8
81047;SHT31;70539;51.970;5.670;2023-09-19T09:54:32;28.3;48.0
81047;SHT31;70539;51.970;5.670;2023-09-19T09:57:05;28.4;47.8
81047;SHT31;70539;51.970;5.670;2023-09-19T09:59:48;28.6;47.3
81047;SHT31;70539;51.970;5.670;2023-09-19T10:02:28;28.6;46.7
81047;SHT31;70539;51.970;5.670;2023-09-19T10:05:13;28.7;45.3
81047;SHT31;70539;51.970;5.670;2023-09-19T10:07:47;28.8;44.3
81047;SHT31;70539;51.970;5.670;2023-09-19T10:10:33;28.8;45.4
81047;SHT31;70539;51.970;5.670;2023-09-19T10:13:13;28.7;43.1
81047;SHT31;70539;51.970;5.670;2023-09-19T10:15:48;28.6;44.7
81047;SHT31;70539;51.970;5.670;2023-09-19T10:18:23;28.6;45.4
81047;SHT31;70539;51.970;5.670;2023-09-19T10:20:52;28.5;45.9
81047;SHT31;70539;51.970;5.670;2023-09-19T10:23:22;28.5;44.1
81047;SHT31;70539;51.970;5.670;2023-09-19T10:25:52;28.5;45.3
81047;SHT31;70539;51.970;5.670;2023-09-19T10:28:22;28.5;46.0
81047;SHT31;70539;51.970;5.670;2023-09-19T10:30:52;28.5;45.8
81047;SHT31;70539;51.970;5.670;2023-09-19T10:33:22;28.5;47.4
81047;SHT31;70539;51.970;5.670;2023-09-19T10:35:53;28.5;44.5
81047;SHT31;70539;51.970;5.670;2023-09-19T10:38:25;28.5;44.2
81047;SHT31;70539;51.970;5.670;2023-09-19T10:40:56;28.4;45.3
81047;SHT31;70539;51.970;5.670;2023-09-19T10:43:30;28.4;44.2
81047;SHT31;70539;51.970;5.670;2023-09-19T10:46:06;28.3;44.2
81047;SHT31;70539;51.970;5.670;2023-09-19T10:48:37;28.2;45.0
81047;SHT31;70539;51.970;5.670;2023-09-19T10:51:14;28.0;45.0
81047;SHT31;70539;51.970;5.670;2023-09-19T10:53:48;27.8;45.4
81047;SHT31;70539;51.970;5.670;2023-09-19T10:56:24;27.6;45.3
81047;SHT31;70539;51.970;5.670;2023-09-19T10:59:09;27.4;45.9
81047;SHT31;70539;51.970;5.670;2023-09-19T11:01:46;27.3;45.9
81047;SHT31;70539;51.970;5.670;2023-09-19T11:04:26;27.2;47.2
81047;SHT31;70539;51.970;5.670;2023-09-19T11:07:04;27.0;46.3
81047;SHT31;70539;51.970;5.670;2023-09-19T11:09:48;26.9;48.7
81047;SHT31;70539;51.970;5.670;2023-09-19T15:56:35;22.0;55.5
81047;SHT31;70539;51.970;5.670;2023-09-19T15:59:09;21.8;56.1
81047;SHT31;70539;51.970;5.670;2023-09-19T16:01:40;21.8;56.9
81047;SHT31;70539;51.970;5.670;2023-09-19T16:04:11;21.8;57.2
81047;SHT31;70539;51.970;5.670;2023-09-19T16:06:42;21.8;57.2
81047;SHT31;70539;51.970;5.670;2023-09-19T16:09:11;21.7;57.6
81047;SHT31;70539;51.970;5.670;2023-09-19T16:11:41;21.7;57.7
81047;SHT31;70539;51.970;5.670;2023-09-19T16:14:10;21.7;57.1
81047;SHT31;70539;51.970;5.670;2023-09-19T16:16:40;21.6;57.3
81047;SHT31;70539;51.970;5.670;2023-09-19T16:19:12;21.6;57.8
81047;SHT31;70539;51.970;5.670;2023-09-19T16:21:40;21.5;58.1
81047;SHT31;70539;51.970;5.670;2023-09-19T16:24:10;21.4;58.7
81047;SHT31;70539;51.970;5.670;2023-09-19T16:26:39;21.4;58.6
81047;SHT31;70539;51.970;5.670;2023-09-19T16:29:08;21.3;58.9
81047;SHT31;70539;51.970;5.670;2023-09-19T16:31:38;21.3;59.0
81047;SHT31;70539;51.970;5.670;2023-09-19T16:34:07;21.2;58.4
81047;SHT31;70539;51.970;5.670;2023-09-19T16:36:36;21.2;59.2
81047;SHT31;70539;51.970;5.670;2023-09-19T16:39:05;21.2;59.1
81047;SHT31;70539;51.970;5.670;2023-09-19T16:41:36;21.1;58.8
81047;SHT31;70539;51.970;5.670;2023-09-19T16:44:05;21.1;58.4
81047;SHT31;70539;51.970;5.670;2023-09-19T16:46:35;21.1;59.0
81047;SHT31;70539;51.970;5.670;2023-09-19T16:49:03;21.1;59.2
81047;SHT31;70539;51.970;5.670;2023-09-19T16:51:33;21.1;59.4
81047;SHT31;70539;51.970;5.670;2023-09-19T16:54:01;21.1;59.0
81047;SHT31;70539;51.970;5.670;2023-09-19T16:56:30;21.0;59.3
81047;SHT31;70539;51.970;5.670;2023-09-19T16:58:59;21.0;59.7
81047;SHT31;70539;51.970;5.670;2023-09-19T17:01:30;21.0;59.7
81047;SHT31;70539;51.970;5.670;2023-09-19T17:03:59;21.0;59.7
81047;SHT31;70539;51.970;5.670;2023-09-19T17:06:28;21.0;59.4
81047;SHT31;70539;51.970;5.670;2023-09-19T17:08:57;21.0;59.7
81047;SHT31;70539;51.970;5.670;2023-09-19T17:11:26;21.0;59.7
81047;SHT31;70539;51.970;5.670;2023-09-19T17:13:55;21.0;59.4
81047;SHT31;70539;51.970;5.670;2023-09-19T17:16:24;21.0;59.7
81047;SHT31;70539;51.970;5.670;2023-09-19T17:18:57;21.0;59.6
81047;SHT31;70539;51.970;5.670;2023-09-19T17:21:28;21.0;60.4
81047;SHT31;70539;51.970;5.670;2023-09-19T17:23:57;21.0;60.4
81047;SHT31;70539;51.970;5.670;2023-09-19T17:26:29;20.9;60.7
81047;SHT31;70539;51.970;5.670;2023-09-19T17:29:00;20.9;60.1
81047;SHT31;70539;51.970;5.670;2023-09-19T17:31:28;20.9;60.0
81047;SHT31;70539;51.970;5.670;2023-09-19T17:33:57;20.9;60.2
81047;SHT31;70539;51.970;5.670;2023-09-19T17:36:26;20.9;60.2
81047;SHT31;70539;51.970;5.670;2023-09-19T17:38:58;20.9;59.8
81047;SHT31;70539;51.970;5.670;2023-09-19T17:41:27;20.9;60.0
81047;SHT31;70539;51.970;5.670;2023-09-19T17:43:57;20.8;60.2
81047;SHT31;70539;51.970;5.670;2023-09-19T17:46:27;20.8;60.4
81047;SHT31;70539;51.970;5.670;2023-09-19T17:48:57;20.8;60.1
81047;SHT31;70539;51.970;5.670;2023-09-19T17:51:26;20.8;60.0
81047;SHT31;70539;51.970;5.670;2023-09-19T17:53:55;20.8;60.3
81047;SHT31;70539;51.970;5.670;2023-09-19T17:56:25;20.7;60.4
81047;SHT31;70539;51.970;5.670;2023-09-19T17:58:53;20.7;60.3
81047;SHT31;70539;51.970;5.670;2023-09-19T18:01:25;20.7;60.5
81047;SHT31;70539;51.970;5.670;2023-09-19T18:03:55;20.7;61.0
81047;SHT31;70539;51.970;5.670;2023-09-19T18:06:26;20.7;61.2
81047;SHT31;70539;51.970;5.670;2023-09-19T18:08:59;20.6;61.4
81047;SHT31;70539;51.970;5.670;2023-09-19T18:11:36;20.6;61.9
81047;SHT31;70539;51.970;5.670;2023-09-19T18:14:05;20.7;61.9
81047;SHT31;70539;51.970;5.670;2023-09-19T18:16:34;20.7;61.7
81047;SHT31;70539;51.970;5.670;2023-09-19T18:19:04;20.7;62.4
81047;SHT31;70539;51.970;5.670;2023-09-19T18:21:34;20.7;62.2
81047;SHT31;70539;51.970;5.670;2023-09-19T18:24:04;20.6;62.6
81047;SHT31;70539;51.970;5.670;2023-09-19T18:26:36;20.6;63.0
81047;SHT31;70539;51.970;5.670;2023-09-19T18:29:06;20.6;63.3
81047;SHT31;70539;51.970;5.670;2023-09-19T18:31:37;20.6;63.5
81047;SHT31;70539;51.970;5.670;2023-09-19T18:34:05;20.5;63.9
81047;SHT31;70539;51.970;5.670;2023-09-19T18:36:36;20.5;64.2
81047;SHT31;70539;51.970;5.670;2023-09-19T18:39:06;20.4;64.9
81047;SHT31;70539;51.970;5.670;2023-09-19T18:41:37;20.4;65.0
81047;SHT31;70539;51.970;5.670;2023-09-19T18:44:07;20.3;65.3
81047;SHT31;70539;51.970;5.670;2023-09-19T18:46:37;20.3;65.5
81047;SHT31;70539;51.970;5.670;2023-09-19T18:49:09;20.3;65.4
81047;SHT31;70539;51.970;5.670;2023-09-19T18:51:40;20.2;65.6
81047;SHT31;70539;51.970;5.670;2023-09-19T18:54:11;20.2;65.8
81047;SHT31;70539;51.970;5.670;2023-09-19T18:56:40;20.1;66.0
81047;SHT31;70539;51.970;5.670;2023-09-19T18:59:12;20.1;66.3
81047;SHT31;70539;51.970;5.670;2023-09-19T19:01:42;20.1;66.4
81047;SHT31;70539;51.970;5.670;2023-09-19T19:04:11;20.0;66.5
81047;SHT31;70539;51.970;5.670;2023-09-19T19:06:40;20.0;66.6
81047;SHT31;70539;51.970;5.670;2023-09-19T19:09:09;20.0;66.8
81047;SHT31;70539;51.970;5.670;2023-09-19T19:11:38;19.9;66.9
81047;SHT31;70539;51.970;5.670;2023-09-19T19:14:06;19.9;66.9
81047;SHT31;70539;51.970;5.670;2023-09-19T19:16:35;19.9;66.9
81047;SHT31;70539;51.970;5.670;2023-09-19T19:19:05;19.9;66.9
81047;SHT31;70539;51.970;5.670;2023-09-19T19:21:34;19.8;66.8
81047;SHT31;70539;51.970;5.670;2023-09-19T19:24:04;19.8;66.9
81047;SHT31;70539;51.970;5.670;2023-09-19T19:26:32;19.8;66.9
81047;SHT31;70539;51.970;5.670;2023-09-19T19:29:01;19.8;66.9
81047;SHT31;70539;51.970;5.670;2023-09-19T19:31:30;19.8;66.8
81047;SHT31;70539;51.970;5.670;2023-09-19T19:34:01;19.8;67.0
81047;SHT31;70539;51.970;5.670;2023-09-19T19:36:31;19.8;66.9
81047;SHT31;70539;51.970;5.670;2023-09-19T19:38:59;19.8;66.7
81047;SHT31;70539;51.970;5.670;2023-09-19T19:41:29;19.8;66.6
81047;SHT31;70539;51.970;5.670;2023-09-19T19:44:00;19.8;66.6
81047;SHT31;70539;51.970;5.670;2023-09-19T19:46:28;19.7;66.9
81047;SHT31;70539;51.970;5.670;2023-09-19T19:48:57;19.8;66.9
81047;SHT31;70539;51.970;5.670;2023-09-19T19:51:26;19.8;66.4
81047;SHT31;70539;51.970;5.670;2023-09-19T19:53:55;19.8;66.2
81047;SHT31;70539;51.970;5.670;2023-09-19T19:56:26;19.9;66.3
81047;SHT31;70539;51.970;5.670;2023-09-19T19:58:56;19.9;65.8
81047;SHT31;70539;51.970;5.670;2023-09-19T20:01:25;19.9;65.7
81047;SHT31;70539;51.970;5.670;2023-09-19T20:03:54;19.9;65.7
81047;SHT31;70539;51.970;5.670;2023-09-19T20:06:23;19.9;65.8
81047;SHT31;70539;51.970;5.670;2023-09-19T20:08:52;19.8;65.8
81047;SHT31;70539;51.970;5.670;2023-09-19T20:11:22;19.8;65.7
81047;SHT31;70539;51.970;5.670;2023-09-19T20:13:56;19.8;65.9
81047;SHT31;70539;51.970;5.670;2023-09-19T20:16:28;19.8;65.5
81047;SHT31;70539;51.970;5.670;2023-09-19T20:18:59;19.8;65.7
81047;SHT31;70539;51.970;5.670;2023-09-19T20:21:28;19.8;65.7
81047;SHT31;70539;51.970;5.670;2023-09-19T20:24:02;19.8;65.8
81047;SHT31;70539;51.970;5.670;2023-09-19T20:26:36;19.8;65.6
81047;SHT31;70539;51.970;5.670;2023-09-19T20:29:06;19.8;65.7
81047;SHT31;70539;51.970;5.670;2023-09-19T20:31:36;19.8;65.6
81047;SHT31;70539;51.970;5.670;2023-09-19T20:34:05;19.8;65.7
81047;SHT31;70539;51.970;5.670;2023-09-19T20:36:35;19.8;65.8
81047;SHT31;70539;51.970;5.670;2023-09-19T20:39:05;19.9;65.4
81047;SHT31;70539;51.970;5.670;2023-09-19T20:41:35;19.9;65.4
81047;SHT31;70539;51.970;5.670;2023-09-19T20:44:05;19.9;65.7
81047;SHT31;70539;51.970;5.670;2023-09-19T20:46:34;19.9;65.4
81047;SHT31;70539;51.970;5.670;2023-09-19T20:49:04;19.9;65.4
81047;SHT31;70539;51.970;5.670;2023-09-19T20:51:34;19.9;65.2
81047;SHT31;70539;51.970;5.670;2023-09-19T20:54:05;19.9;65.3
81047;SHT31;70539;51.970;5.670;2023-09-19T20:56:35;19.9;65.0
81047;SHT31;70539;51.970;5.670;2023-09-19T20:59:04;19.9;64.8
81047;SHT31;70539;51.970;5.670;2023-09-19T21:01:34;20.0;64.8
81047;SHT31;70539;51.970;5.670;2023-09-19T21:04:04;20.0;64.8
81047;SHT31;70539;51.970;5.670;2023-09-19T21:06:33;20.0;65.0
81047;SHT31;70539;51.970;5.670;2023-09-19T21:09:03;20.0;64.8
81047;SHT31;70539;51.970;5.670;2023-09-19T21:11:33;20.0;64.4
81047;SHT31;70539;51.970;5.670;2023-09-19T21:14:02;20.0;64.6
81047;SHT31;70539;51.970;5.670;2023-09-19T21:16:31;20.0;64.6
81047;SHT31;70539;51.970;5.670;2023-09-19T21:19:00;20.0;64.1
81047;SHT31;70539;51.970;5.670;2023-09-19T21:21:30;20.0;64.6
81047;SHT31;70539;51.970;5.670;2023-09-19T21:24:03;20.0;65.0
81047;SHT31;70539;51.970;5.670;2023-09-19T21:26:33;20.1;64.6
81047;SHT31;70539;51.970;5.670;2023-09-19T21:29:01;20.1;64.7
81047;SHT31;70539;51.970;5.670;2023-09-19T21:31:30;20.1;64.6
81047;SHT31;70539;51.970;5.670;2023-09-19T21:33:59;20.2;64.6